Time;durP1;ratioP1;P1;durP2;ratioP2;P2;SDS_P1;SDS_P2;PMS_P1;PMS_P2;Temp;Humidity;BMP_temperature;BMP_pressure;BME280_temperature;BME280_humidity;BME280_pressure;Samples;Min_cycle;Max_cycle;Signal;HPM_P1;HPM_P2
2023/04/09 00:00:18;;;;;;;;;;;10.80;81.20;;;;;;6148533;23;19912;-96
2023/04/09 00:02:44;;;;;;;;;;;10.80;81.10;;;;;;6147893;23;19905;-96
2023/04/09 00:05:10;;;;;;;;;;;10.80;78.90;;;;;;6174486;23;20337;-96
2023/04/09 00:07:35;;;;;;;;;;;10.90;78.10;;;;;;6147480;23;19905;-96
2023/04/09 00:10:01;;;;;;;;;;;10.90;78.70;;;;;;6148220;23;19909;-96
2023/04/09 00:12:29;;;;;;;;;;;10.90;79.00;;;;;;6173472;23;20242;-96
2023/04/09 00:14:55;;;;;;;;;;;10.90;80.00;;;;;;6147776;23;19956;-96
2023/04/09 00:17:21;;;;;;;;;;;10.80;81.20;;;;;;6146481;23;19912;-96
2023/04/09 00:19:47;;;;;;;;;;;10.70;81.30;;;;;;6172800;23;19905;-96
2023/04/09 00:22:12;;;;;;;;;;;10.80;81.20;;;;;;6172995;23;19905;-96
2023/04/09 00:24:38;;;;;;;;;;;10.70;81.70;;;;;;6173075;23;19909;-96
2023/04/09 00:27:04;;;;;;;;;;;10.70;81.90;;;;;;6147670;23;19911;-96
2023/04/09 00:29:30;;;;;;;;;;;10.70;82.00;;;;;;6146771;23;19905;-96
2023/04/09 00:31:56;;;;;;;;;;;10.70;82.00;;;;;;6146841;23;19912;-96
2023/04/09 00:34:21;;;;;;;;;;;10.70;81.90;;;;;;6173747;23;19904;-96
2023/04/09 00:36:47;;;;;;;;;;;10.70;82.20;;;;;;6146233;23;19905;-96
2023/04/09 00:39:13;;;;;;;;;;;10.60;83.00;;;;;;6172444;23;19911;-96
2023/04/09 00:41:39;;;;;;;;;;;10.60;83.50;;;;;;6146865;23;20235;-96
2023/04/09 00:44:04;;;;;;;;;;;10.70;83.20;;;;;;6146955;23;19919;-96
2023/04/09 00:46:30;;;;;;;;;;;10.70;82.60;;;;;;6170730;23;19904;-96
2023/04/09 00:48:56;;;;;;;;;;;10.70;81.90;;;;;;6167876;23;19911;-96
2023/04/09 00:51:22;;;;;;;;;;;10.70;80.00;;;;;;6168692;23;19904;-96
2023/04/09 00:53:47;;;;;;;;;;;10.70;79.10;;;;;;6140581;23;19904;-96
2023/04/09 00:56:14;;;;;;;;;;;10.70;79.00;;;;;;6168151;23;19905;-96
2023/04/09 00:58:40;;;;;;;;;;;10.70;79.30;;;;;;6166883;23;19905;-96
2023/04/09 01:01:06;;;;;;;;;;;10.60;79.50;;;;;;6140510;23;19908;-96
2023/04/09 01:03:31;;;;;;;;;;;10.60;79.00;;;;;;6139669;23;19904;-96
2023/04/09 01:05:57;;;;;;;;;;;10.50;79.10;;;;;;6141113;23;19904;-96
2023/04/09 01:08:25;;;;;;;;;;;10.50;79.40;;;;;;6167192;23;19940;-96
2023/04/09 01:10:58;;;;;;;;;;;10.50;78.80;;;;;;6165648;23;19931;-96
2023/04/09 01:13:23;;;;;;;;;;;10.40;78.30;;;;;;6165418;23;19926;-96
2023/04/09 01:15:52;;;;;;;;;;;10.40;78.50;;;;;;6165500;23;20325;-96
2023/04/09 01:18:23;;;;;;;;;;;10.40;78.40;;;;;;6166152;23;19904;-96
2023/04/09 01:20:57;;;;;;;;;;;10.40;78.30;;;;;;6166903;23;19928;-96
2023/04/09 01:23:24;;;;;;;;;;;10.40;78.50;;;;;;6166485;23;19912;-96
2023/04/09 01:25:59;;;;;;;;;;;10.40;78.60;;;;;;6140219;23;19918;-96
2023/04/09 01:28:26;;;;;;;;;;;10.40;78.40;;;;;;6166210;23;19910;-96
2023/04/09 01:30:54;;;;;;;;;;;10.40;78.30;;;;;;6166311;23;19905;-96
2023/04/09 01:33:20;;;;;;;;;;;10.40;78.10;;;;;;6166068;23;19904;-96
2023/04/09 01:35:47;;;;;;;;;;;10.40;78.50;;;;;;6140040;23;19957;-96
2023/04/09 01:38:13;;;;;;;;;;;10.40;78.40;;;;;;6168019;23;19905;-95
2023/04/09 01:40:39;;;;;;;;;;;10.40;78.30;;;;;;6165725;23;20290;-96
2023/04/09 01:43:05;;;;;;;;;;;10.40;78.20;;;;;;6141474;23;19909;-96
2023/04/09 01:45:31;;;;;;;;;;;10.40;78.20;;;;;;6168373;23;20323;-96
2023/04/09 01:47:57;;;;;;;;;;;10.40;78.20;;;;;;6166681;23;19905;-96
2023/04/09 01:50:23;;;;;;;;;;;10.40;78.20;;;;;;6166127;23;19928;-96
2023/04/09 01:52:49;;;;;;;;;;;10.40;78.20;;;;;;6165132;23;19905;-96
2023/04/09 01:55:15;;;;;;;;;;;10.40;78.20;;;;;;6167149;23;19915;-95
2023/04/09 01:57:40;;;;;;;;;;;10.40;78.20;;;;;;6141336;23;19944;-95
2023/04/09 02:00:06;;;;;;;;;;;10.40;78.40;;;;;;6141409;23;20258;-96
2023/04/09 02:02:35;;;;;;;;;;;10.40;78.60;;;;;;6167013;23;19955;-96
2023/04/09 02:05:04;;;;;;;;;;;10.40;78.40;;;;;;6165862;23;19909;-96
2023/04/09 02:07:36;;;;;;;;;;;10.40;78.20;;;;;;6140664;23;19905;-96
2023/04/09 02:10:02;;;;;;;;;;;10.40;78.40;;;;;;6166170;23;19987;-96
2023/04/09 02:12:29;;;;;;;;;;;10.40;78.60;;;;;;6139868;23;19952;-96
2023/04/09 02:14:55;;;;;;;;;;;10.40;78.80;;;;;;6165824;23;19908;-96
2023/04/09 02:17:21;;;;;;;;;;;10.40;79.20;;;;;;6165651;23;19979;-96
2023/04/09 02:19:47;;;;;;;;;;;10.30;80.10;;;;;;6139390;23;19928;-96
2023/04/09 02:22:13;;;;;;;;;;;10.30;80.40;;;;;;6139569;23;19904;-96
2023/04/09 02:24:39;;;;;;;;;;;10.30;80.90;;;;;;6165596;23;19909;-96
2023/04/09 02:27:05;;;;;;;;;;;10.30;81.50;;;;;;6164556;23;19908;-96
2023/04/09 02:29:31;;;;;;;;;;;10.30;81.60;;;;;;6164033;23;20286;-95
2023/04/09 02:31:56;;;;;;;;;;;10.20;81.90;;;;;;6164537;23;19976;-96
2023/04/09 02:34:22;;;;;;;;;;;10.20;82.10;;;;;;6164985;23;20016;-96
2023/04/09 02:36:47;;;;;;;;;;;10.10;82.20;;;;;;6164179;23;19911;-96
2023/04/09 02:39:13;;;;;;;;;;;10.10;82.50;;;;;;6137902;23;19909;-96
2023/04/09 02:41:39;;;;;;;;;;;10.10;82.80;;;;;;6164010;23;19932;-96
2023/04/09 02:44:04;;;;;;;;;;;10.10;82.80;;;;;;6163602;23;19912;-94
2023/04/09 02:46:30;;;;;;;;;;;10.10;82.40;;;;;;6138448;23;19932;-94
2023/04/09 02:48:55;;;;;;;;;;;10.00;82.20;;;;;;6164494;23;20308;-96
2023/04/09 02:51:21;;;;;;;;;;;10.00;82.20;;;;;;6164546;23;19905;-96
2023/04/09 02:53:47;;;;;;;;;;;10.00;82.20;;;;;;6164985;23;19905;-96
2023/04/09 02:56:12;;;;;;;;;;;10.00;82.10;;;;;;6140086;23;19905;-96
2023/04/09 02:58:38;;;;;;;;;;;10.00;82.10;;;;;;6139789;23;19905;-96
2023/04/09 03:01:04;;;;;;;;;;;10.00;82.00;;;;;;6166701;23;19905;-96
2023/04/09 03:03:30;;;;;;;;;;;10.00;81.90;;;;;;6139507;23;19904;-96
2023/04/09 03:05:55;;;;;;;;;;;10.00;81.90;;;;;;6166796;23;19919;-96
2023/04/09 03:08:21;;;;;;;;;;;9.90;82.00;;;;;;6166191;23;19952;-96
2023/04/09 03:10:47;;;;;;;;;;;9.90;82.10;;;;;;6139740;23;19904;-96
2023/04/09 03:13:12;;;;;;;;;;;9.90;82.00;;;;;;6139429;23;19920;-95
2023/04/09 03:15:38;;;;;;;;;;;9.90;82.00;;;;;;6166263;23;19904;-95
2023/04/09 03:18:03;;;;;;;;;;;9.90;82.00;;;;;;6165831;23;19955;-96
2023/04/09 03:20:29;;;;;;;;;;;9.90;81.80;;;;;;6138978;23;19924;-96
2023/04/09 03:22:54;;;;;;;;;;;9.90;82.30;;;;;;6166891;23;19908;-96
2023/04/09 03:25:20;;;;;;;;;;;9.90;82.20;;;;;;6166431;23;19908;-96
2023/04/09 03:27:46;;;;;;;;;;;9.80;82.30;;;;;;6166805;23;19905;-95
2023/04/09 03:30:11;;;;;;;;;;;9.70;82.50;;;;;;6166113;23;19928;-96
2023/04/09 03:32:37;;;;;;;;;;;9.80;82.20;;;;;;6141026;23;19905;-96
2023/04/09 03:35:02;;;;;;;;;;;9.70;82.00;;;;;;6140737;23;19956;-95
2023/04/09 03:37:28;;;;;;;;;;;9.70;81.80;;;;;;6166379;23;19911;-96
2023/04/09 03:39:54;;;;;;;;;;;9.70;81.70;;;;;;6166978;23;20390;-95
2023/04/09 03:42:19;;;;;;;;;;;9.60;81.70;;;;;;6140865;23;19923;-95
2023/04/09 03:44:45;;;;;;;;;;;9.60;81.60;;;;;;6141805;23;19919;-95
2023/04/09 03:47:10;;;;;;;;;;;9.60;81.60;;;;;;6140381;23;19905;-96
2023/04/09 03:49:36;;;;;;;;;;;9.60;81.70;;;;;;6142462;23;20361;-96
2023/04/09 03:52:02;;;;;;;;;;;9.60;81.60;;;;;;6166768;23;19904;-95
2023/04/09 03:54:28;;;;;;;;;;;9.60;81.80;;;;;;6141382;23;19911;-96
2023/04/09 03:56:55;;;;;;;;;;;9.60;81.50;;;;;;6141476;23;19936;-96
2023/04/09 03:59:20;;;;;;;;;;;9.50;81.20;;;;;;6167708;23;19911;-96
2023/04/09 04:01:46;;;;;;;;;;;9.50;81.30;;;;;;6141290;23;19905;-96
2023/04/09 04:04:12;;;;;;;;;;;9.50;81.30;;;;;;6141852;23;19916;-96
2023/04/09 04:06:38;;;;;;;;;;;9.50;81.20;;;;;;6168464;23;19916;-96
2023/04/09 04:09:03;;;;;;;;;;;9.50;81.10;;;;;;6167867;23;20231;-96
2023/04/09 04:11:29;;;;;;;;;;;9.50;80.90;;;;;;6167749;23;19948;-95
2023/04/09 04:13:55;;;;;;;;;;;9.50;80.60;;;;;;6168287;23;19949;-96
2023/04/09 04:16:20;;;;;;;;;;;9.50;80.40;;;;;;6169271;23;19905;-96
2023/04/09 04:18:46;;;;;;;;;;;9.60;80.20;;;;;;6169030;23;19939;-96
2023/04/09 04:21:13;;;;;;;;;;;9.60;79.90;;;;;;6169540;23;19905;-96
2023/04/09 04:23:39;;;;;;;;;;;9.60;79.80;;;;;;6168446;23;19905;-96
2023/04/09 04:26:11;;;;;;;;;;;9.60;79.80;;;;;;6168629;23;19955;-96
2023/04/09 04:28:37;;;;;;;;;;;9.60;79.90;;;;;;6142742;23;19906;-96
2023/04/09 04:31:12;;;;;;;;;;;9.60;80.10;;;;;;6169441;23;19905;-96
2023/04/09 04:33:39;;;;;;;;;;;9.60;80.00;;;;;;6170221;23;19912;-96
2023/04/09 04:36:05;;;;;;;;;;;9.60;79.90;;;;;;6170180;23;19904;-96
2023/04/09 04:38:31;;;;;;;;;;;9.60;79.90;;;;;;6171225;23;19905;-95
2023/04/09 04:40:57;;;;;;;;;;;9.60;79.70;;;;;;6170892;23;20238;-96
2023/04/09 04:43:22;;;;;;;;;;;9.60;79.90;;;;;;6145246;23;19912;-96
2023/04/09 04:45:48;;;;;;;;;;;9.50;80.20;;;;;;6145459;23;20008;-96
2023/04/09 04:48:13;;;;;;;;;;;9.60;80.40;;;;;;6170798;23;19905;-96
2023/04/09 04:50:39;;;;;;;;;;;9.60;80.50;;;;;;6171203;23;19905;-95
2023/04/09 04:53:05;;;;;;;;;;;9.60;81.30;;;;;;6144430;23;19915;-96
2023/04/09 04:55:30;;;;;;;;;;;9.60;81.50;;;;;;6169419;23;19905;-96
2023/04/09 04:57:56;;;;;;;;;;;9.60;81.00;;;;;;6142028;23;19905;-96
2023/04/09 05:00:22;;;;;;;;;;;9.60;80.70;;;;;;6168046;23;19905;-95
2023/04/09 05:02:47;;;;;;;;;;;9.60;81.00;;;;;;6167814;23;19905;-96
2023/04/09 05:05:13;;;;;;;;;;;9.60;81.80;;;;;;6140683;23;19909;-96
2023/04/09 05:07:38;;;;;;;;;;;9.70;81.90;;;;;;6167427;23;19908;-95
2023/04/09 05:10:04;;;;;;;;;;;9.60;81.70;;;;;;6166643;23;19905;-95
2023/04/09 05:12:30;;;;;;;;;;;9.60;80.90;;;;;;6166903;23;19909;-95
2023/04/09 05:14:56;;;;;;;;;;;9.60;80.20;;;;;;6139094;23;19908;-95
2023/04/09 05:17:23;;;;;;;;;;;9.50;80.00;;;;;;6165663;23;20271;-96
2023/04/09 05:19:52;;;;;;;;;;;9.60;80.00;;;;;;6139988;23;19905;-96
2023/04/09 05:22:18;;;;;;;;;;;9.50;80.10;;;;;;6140104;23;19905;-95
2023/04/09 05:24:44;;;;;;;;;;;9.60;80.30;;;;;;6166671;23;19944;-95
2023/04/09 05:27:09;;;;;;;;;;;9.50;80.50;;;;;;6166129;23;19905;-96
2023/04/09 05:29:35;;;;;;;;;;;9.50;80.80;;;;;;6140784;23;19908;-96
2023/04/09 05:32:01;;;;;;;;;;;9.40;81.00;;;;;;6166794;23;19905;-95
2023/04/09 05:34:26;;;;;;;;;;;9.40;81.30;;;;;;6139849;23;19928;-96
2023/04/09 05:36:52;;;;;;;;;;;9.40;81.50;;;;;;6139821;23;19909;-95
2023/04/09 05:39:18;;;;;;;;;;;9.40;81.80;;;;;;6166195;23;19912;-96
2023/04/09 05:41:43;;;;;;;;;;;9.30;81.70;;;;;;6140661;23;19923;-95
2023/04/09 05:44:12;;;;;;;;;;;9.30;81.80;;;;;;6166609;23;20249;-96
2023/04/09 05:46:38;;;;;;;;;;;9.30;81.90;;;;;;6167853;23;19905;-96
2023/04/09 05:49:03;;;;;;;;;;;9.30;82.20;;;;;;6141612;23;19904;-95
2023/04/09 05:51:29;;;;;;;;;;;9.30;82.60;;;;;;6167765;23;19913;-96
2023/04/09 05:53:55;;;;;;;;;;;9.30;82.80;;;;;;6167543;23;19908;-95
2023/04/09 05:56:23;;;;;;;;;;;9.30;82.90;;;;;;6167975;23;19905;-94
2023/04/09 05:58:48;;;;;;;;;;;9.30;83.10;;;;;;6167959;23;19911;-96
2023/04/09 06:01:14;;;;;;;;;;;9.30;82.80;;;;;;6168002;23;19905;-96
2023/04/09 06:03:40;;;;;;;;;;;9.40;82.80;;;;;;6141611;23;19904;-96
2023/04/09 06:06:05;;;;;;;;;;;9.40;82.80;;;;;;6142148;23;20350;-96
2023/04/09 06:08:31;;;;;;;;;;;9.40;82.70;;;;;;6141221;23;19911;-96
2023/04/09 06:10:57;;;;;;;;;;;9.30;83.00;;;;;;6167213;23;19979;-95
2023/04/09 06:13:23;;;;;;;;;;;9.30;83.30;;;;;;6166629;23;19979;-96
2023/04/09 06:15:48;;;;;;;;;;;9.30;83.50;;;;;;6140901;23;19912;-96
2023/04/09 06:18:14;;;;;;;;;;;9.30;83.70;;;;;;6167019;23;19905;-96
2023/04/09 06:20:40;;;;;;;;;;;9.40;83.90;;;;;;6140193;23;19905;-96
2023/04/09 06:23:06;;;;;;;;;;;9.40;84.10;;;;;;6139875;23;19915;-95
2023/04/09 06:25:31;;;;;;;;;;;9.50;83.80;;;;;;6165320;23;20323;-96
2023/04/09 06:27:57;;;;;;;;;;;9.60;83.60;;;;;;6138244;23;19943;-96
2023/04/09 06:30:22;;;;;;;;;;;9.70;83.30;;;;;;6165857;23;19905;-96
2023/04/09 06:32:48;;;;;;;;;;;9.90;82.90;;;;;;6165860;23;19905;-95
2023/04/09 06:35:14;;;;;;;;;;;10.00;82.50;;;;;;6166443;23;19912;-96
2023/04/09 06:37:40;;;;;;;;;;;10.10;81.20;;;;;;6141088;23;19905;-96
2023/04/09 06:40:06;;;;;;;;;;;10.30;80.80;;;;;;6167569;23;19909;-96
2023/04/09 06:42:31;;;;;;;;;;;10.40;80.20;;;;;;6166532;23;19917;-96
2023/04/09 06:44:57;;;;;;;;;;;10.50;78.40;;;;;;6167139;23;19915;-96
2023/04/09 06:47:22;;;;;;;;;;;10.60;77.40;;;;;;6140967;23;19905;-95
2023/04/09 06:49:48;;;;;;;;;;;10.70;76.50;;;;;;6168391;23;19909;-96
2023/04/09 06:52:14;;;;;;;;;;;10.80;75.80;;;;;;6142351;23;20338;-96
2023/04/09 06:54:39;;;;;;;;;;;10.90;75.70;;;;;;6142444;23;19955;-96
2023/04/09 06:57:06;;;;;;;;;;;11.00;75.60;;;;;;6169483;23;19908;-96
2023/04/09 06:59:32;;;;;;;;;;;11.00;74.80;;;;;;6167743;23;19912;-96
2023/04/09 07:01:58;;;;;;;;;;;11.10;74.20;;;;;;6142326;23;19905;-96
2023/04/09 07:04:24;;;;;;;;;;;11.20;74.20;;;;;;6169652;23;19952;-96
2023/04/09 07:06:51;;;;;;;;;;;11.20;73.20;;;;;;6168501;23;19912;-96
2023/04/09 07:09:17;;;;;;;;;;;11.30;73.10;;;;;;6142235;23;19905;-96
2023/04/09 07:11:43;;;;;;;;;;;11.30;72.90;;;;;;6168382;23;19932;-96
2023/04/09 07:14:08;;;;;;;;;;;11.40;72.30;;;;;;6168777;23;19911;-96
2023/04/09 07:16:34;;;;;;;;;;;11.40;72.30;;;;;;6142037;23;19905;-96
2023/04/09 07:19:00;;;;;;;;;;;11.50;72.10;;;;;;6142140;23;19940;-96
2023/04/09 07:21:27;;;;;;;;;;;11.50;72.00;;;;;;6168649;23;19912;-96
2023/04/09 07:23:52;;;;;;;;;;;11.50;71.40;;;;;;6166924;23;20353;-96
2023/04/09 07:26:18;;;;;;;;;;;11.60;70.50;;;;;;6167441;23;19983;-96
2023/04/09 07:28:44;;;;;;;;;;;11.60;69.60;;;;;;6167663;23;19905;-96
2023/04/09 07:31:10;;;;;;;;;;;11.60;70.50;;;;;;6142253;23;19912;-96
2023/04/09 07:33:36;;;;;;;;;;;11.60;69.90;;;;;;6142088;23;19916;-96
2023/04/09 07:36:02;;;;;;;;;;;11.70;69.70;;;;;;6142865;23;20241;-96
2023/04/09 07:38:28;;;;;;;;;;;11.70;70.50;;;;;;6169207;23;19944;-96
2023/04/09 07:40:54;;;;;;;;;;;11.60;70.30;;;;;;6177336;23;19928;-96
2023/04/09 07:43:20;;;;;;;;;;;11.70;70.70;;;;;;6201038;23;19904;-96
2023/04/09 07:45:50;;;;;;;;;;;11.70;70.70;;;;;;6201156;23;19913;-96
2023/04/09 07:48:16;;;;;;;;;;;11.70;70.00;;;;;;6174741;23;19909;-96
2023/04/09 07:50:43;;;;;;;;;;;11.80;71.50;;;;;;6201978;23;19926;-96
2023/04/09 07:53:09;;;;;;;;;;;11.90;69.30;;;;;;6174731;23;19904;-96
2023/04/09 07:55:35;;;;;;;;;;;11.90;68.30;;;;;;6173428;23;19951;-96
2023/04/09 07:58:00;;;;;;;;;;;12.00;69.40;;;;;;6173415;23;19910;-96
2023/04/09 08:00:26;;;;;;;;;;;12.10;69.30;;;;;;6172575;23;19911;-96
2023/04/09 08:02:52;;;;;;;;;;;12.10;68.40;;;;;;6152887;23;19904;-96
2023/04/09 08:05:17;;;;;;;;;;;12.10;68.80;;;;;;6170749;23;19951;-96
2023/04/09 08:07:43;;;;;;;;;;;12.20;68.50;;;;;;6170386;23;19905;-96
2023/04/09 08:10:13;;;;;;;;;;;12.30;68.30;;;;;;6171241;23;19932;-96
2023/04/09 08:12:39;;;;;;;;;;;12.30;66.20;;;;;;6172207;23;19928;-96
2023/04/09 08:15:05;;;;;;;;;;;12.30;65.50;;;;;;6145741;23;19915;-96
2023/04/09 08:17:31;;;;;;;;;;;12.30;64.80;;;;;;6145542;23;19928;-96
2023/04/09 08:19:56;;;;;;;;;;;12.40;63.70;;;;;;6170929;23;19905;-96
2023/04/09 08:22:22;;;;;;;;;;;12.40;63.00;;;;;;6145755;23;19976;-96
2023/04/09 08:24:52;;;;;;;;;;;12.40;63.00;;;;;;6145924;23;19915;-96
2023/04/09 08:27:18;;;;;;;;;;;12.40;65.20;;;;;;6146274;23;19904;-96
2023/04/09 08:29:43;;;;;;;;;;;12.60;66.20;;;;;;6172813;23;19912;-96
2023/04/09 08:32:09;;;;;;;;;;;12.60;60.80;;;;;;6173524;23;19904;-96
2023/04/09 08:34:35;;;;;;;;;;;12.70;60.50;;;;;;6146613;23;20221;-96
2023/04/09 08:37:01;;;;;;;;;;;12.80;60.50;;;;;;6173747;23;19905;-96
2023/04/09 08:39:26;;;;;;;;;;;12.80;59.80;;;;;;6147130;23;19957;-96
2023/04/09 08:41:52;;;;;;;;;;;12.90;61.10;;;;;;6173287;23;19916;-96
2023/04/09 08:44:18;;;;;;;;;;;13.00;62.40;;;;;;6172562;23;19908;-96
2023/04/09 08:46:44;;;;;;;;;;;13.00;58.90;;;;;;6173222;23;19905;-96
2023/04/09 08:49:12;;;;;;;;;;;13.10;60.30;;;;;;6173555;23;19935;-96
2023/04/09 08:51:39;;;;;;;;;;;13.20;61.70;;;;;;6148050;23;19904;-96
2023/04/09 08:54:05;;;;;;;;;;;13.30;59.70;;;;;;6147180;23;19908;-96
2023/04/09 08:56:31;;;;;;;;;;;13.20;57.60;;;;;;6173203;23;19904;-96
2023/04/09 08:58:57;;;;;;;;;;;13.20;58.90;;;;;;6174850;23;19922;-96
2023/04/09 09:01:26;;;;;;;;;;;13.20;59.50;;;;;;6147903;23;19912;-96
2023/04/09 09:03:53;;;;;;;;;;;13.30;59.50;;;;;;6146600;23;19905;-96
2023/04/09 09:06:22;;;;;;;;;;;13.30;61.00;;;;;;6173702;23;19912;-96
2023/04/09 09:09:07;;;;;;;;;;;13.30;61.80;;;;;;6174317;23;19904;-96
2023/04/09 09:11:34;;;;;;;;;;;13.30;58.70;;;;;;6148192;23;19976;-96
2023/04/09 09:14:01;;;;;;;;;;;13.40;60.00;;;;;;6173953;23;19911;-96
2023/04/09 09:16:26;;;;;;;;;;;13.50;61.60;;;;;;6148002;23;19912;-96
2023/04/09 09:18:52;;;;;;;;;;;13.60;60.40;;;;;;6148429;23;19904;-96
2023/04/09 09:21:18;;;;;;;;;;;13.70;61.00;;;;;;6175754;23;19976;-96
2023/04/09 09:23:44;;;;;;;;;;;13.80;61.40;;;;;;6176001;23;19912;-96
2023/04/09 09:26:15;;;;;;;;;;;13.80;58.20;;;;;;6149399;23;19904;-96
2023/04/09 09:28:41;;;;;;;;;;;13.90;57.60;;;;;;6175699;23;19952;-96
2023/04/09 09:31:10;;;;;;;;;;;13.90;58.30;;;;;;6176614;23;19911;-96
2023/04/09 09:33:36;;;;;;;;;;;13.90;57.80;;;;;;6175529;23;19932;-96
2023/04/09 09:36:02;;;;;;;;;;;14.00;57.50;;;;;;6149292;23;19904;-95
2023/04/09 09:38:28;;;;;;;;;;;14.00;57.40;;;;;;6148869;23;19912;-96
2023/04/09 09:40:54;;;;;;;;;;;14.10;56.60;;;;;;6147440;23;19968;-96
2023/04/09 09:43:20;;;;;;;;;;;14.10;54.80;;;;;;6175501;23;19909;-96
2023/04/09 09:45:46;;;;;;;;;;;14.10;57.80;;;;;;6175201;23;19913;-96
2023/04/09 09:48:13;;;;;;;;;;;14.10;54.80;;;;;;6149929;23;19905;-96
2023/04/09 09:50:42;;;;;;;;;;;14.00;53.90;;;;;;6148761;23;19959;-96
2023/04/09 09:53:12;;;;;;;;;;;14.00;53.60;;;;;;6149961;23;19916;-96
2023/04/09 09:55:39;;;;;;;;;;;14.00;54.30;;;;;;6175980;23;19924;-96
2023/04/09 09:58:11;;;;;;;;;;;13.90;54.00;;;;;;6149478;23;19987;-96
2023/04/09 10:00:39;;;;;;;;;;;14.00;54.70;;;;;;6150172;23;19924;-96
2023/04/09 10:03:13;;;;;;;;;;;14.00;56.20;;;;;;6149959;23;19905;-96
2023/04/09 10:05:39;;;;;;;;;;;14.10;55.00;;;;;;6175989;23;19916;-96
2023/04/09 10:08:05;;;;;;;;;;;14.30;55.10;;;;;;6150292;23;19912;-96
2023/04/09 10:10:32;;;;;;;;;;;14.30;56.00;;;;;;6174708;23;19905;-96
2023/04/09 10:12:58;;;;;;;;;;;14.40;55.30;;;;;;6174912;23;19983;-96
2023/04/09 10:15:25;;;;;;;;;;;14.50;52.80;;;;;;6150099;23;19905;-96
2023/04/09 10:17:51;;;;;;;;;;;14.60;52.80;;;;;;6150071;23;19905;-96
2023/04/09 10:20:39;;;;;;;;;;;14.70;53.30;;;;;;6149404;23;19904;-96
2023/04/09 10:23:08;;;;;;;;;;;14.80;53.60;;;;;;6149673;23;19905;-96
2023/04/09 10:25:34;;;;;;;;;;;14.90;50.00;;;;;;6149681;23;19916;-96
2023/04/09 10:28:01;;;;;;;;;;;14.90;48.20;;;;;;6149026;23;19904;-95
2023/04/09 10:30:32;;;;;;;;;;;14.90;48.40;;;;;;6148202;23;19930;-96
2023/04/09 10:33:18;;;;;;;;;;;14.80;49.30;;;;;;6175441;23;20008;-96
2023/04/09 10:35:49;;;;;;;;;;;14.90;51.80;;;;;;6151354;23;19941;-96
2023/04/09 10:38:15;;;;;;;;;;;15.10;53.10;;;;;;6149817;23;19955;-96
2023/04/09 10:40:50;;;;;;;;;;;15.30;52.00;;;;;;6175500;23;19913;-96
2023/04/09 10:43:18;;;;;;;;;;;15.50;50.70;;;;;;6174244;23;19909;-96
2023/04/09 10:45:47;;;;;;;;;;;15.60;50.70;;;;;;6147765;23;19908;-96
2023/04/09 10:48:13;;;;;;;;;;;15.70;47.90;;;;;;6175234;23;19905;-96
2023/04/09 10:50:41;;;;;;;;;;;15.60;49.00;;;;;;6147786;23;19951;-96
2023/04/09 10:53:07;;;;;;;;;;;15.50;48.80;;;;;;6149953;23;19925;-96
2023/04/09 10:55:39;;;;;;;;;;;15.60;49.30;;;;;;6148457;23;19905;-96
2023/04/09 10:58:08;;;;;;;;;;;15.60;49.50;;;;;;6148721;23;19904;-96
2023/04/09 11:00:38;;;;;;;;;;;15.50;50.00;;;;;;6148526;23;19905;-96
2023/04/09 11:03:22;;;;;;;;;;;15.40;49.10;;;;;;6147481;23;19908;-96
2023/04/09 11:05:53;;;;;;;;;;;15.50;47.90;;;;;;6148443;23;19909;-96
2023/04/09 11:08:20;;;;;;;;;;;15.60;50.10;;;;;;6174421;23;19905;-96
2023/04/09 11:10:46;;;;;;;;;;;15.80;50.20;;;;;;6174778;23;19919;-96
2023/04/09 11:13:14;;;;;;;;;;;15.90;48.60;;;;;;6173683;23;19905;-96
2023/04/09 11:15:40;;;;;;;;;;;15.80;47.40;;;;;;6149603;23;19949;-96
2023/04/09 11:18:06;;;;;;;;;;;15.80;49.70;;;;;;6175224;23;19952;-96
2023/04/09 11:20:33;;;;;;;;;;;15.90;47.50;;;;;;6176343;23;19904;-96
2023/04/09 11:22:59;;;;;;;;;;;15.90;47.70;;;;;;6150315;23;19912;-96
2023/04/09 11:25:26;;;;;;;;;;;15.90;46.80;;;;;;6150173;23;20330;-96
2023/04/09 11:27:52;;;;;;;;;;;16.00;47.90;;;;;;6176372;23;19904;-96
2023/04/09 11:30:18;;;;;;;;;;;16.00;47.00;;;;;;6176162;23;19909;-96
2023/04/09 11:32:44;;;;;;;;;;;16.00;47.90;;;;;;6176851;23;19905;-96
2023/04/09 11:35:14;;;;;;;;;;;16.00;46.60;;;;;;6152152;23;19889;-96
2023/04/09 11:37:41;;;;;;;;;;;16.10;46.50;;;;;;6152615;23;19904;-96
2023/04/09 11:40:13;;;;;;;;;;;16.30;46.50;;;;;;6153263;23;19909;-96
2023/04/09 11:42:39;;;;;;;;;;;16.50;48.60;;;;;;6179391;23;19924;-96
2023/04/09 11:45:06;;;;;;;;;;;16.70;47.80;;;;;;6153072;23;19909;-96
2023/04/09 11:47:32;;;;;;;;;;;16.80;46.70;;;;;;6152913;23;19904;-96
2023/04/09 11:49:58;;;;;;;;;;;16.80;46.00;;;;;;6151900;23;19911;-96
2023/04/09 11:52:24;;;;;;;;;;;16.80;44.90;;;;;;6153994;23;19904;-96
2023/04/09 11:54:50;;;;;;;;;;;16.80;44.30;;;;;;6154059;23;19904;-96
2023/04/09 11:57:17;;;;;;;;;;;16.90;45.90;;;;;;6153178;23;20477;-96
2023/04/09 11:59:44;;;;;;;;;;;17.10;45.40;;;;;;6181116;23;19905;-96
2023/04/09 12:02:11;;;;;;;;;;;17.30;44.20;;;;;;6155796;23;19911;-96
2023/04/09 12:04:48;;;;;;;;;;;17.60;44.60;;;;;;6182151;23;19899;-96
2023/04/09 12:07:16;;;;;;;;;;;17.80;41.20;;;;;;6155986;23;19905;-96
2023/04/09 12:09:48;;;;;;;;;;;18.00;44.70;;;;;;6179180;23;19904;-96
2023/04/09 12:12:18;;;;;;;;;;;17.80;41.80;;;;;;6152218;23;19936;-96
2023/04/09 12:14:45;;;;;;;;;;;17.80;42.30;;;;;;6179735;23;19935;-96
2023/04/09 12:17:11;;;;;;;;;;;17.90;43.10;;;;;;6153358;23;19905;-96
2023/04/09 12:19:37;;;;;;;;;;;17.70;44.20;;;;;;6154219;23;19916;-96
2023/04/09 12:22:03;;;;;;;;;;;17.90;44.00;;;;;;6179807;23;19912;-96
2023/04/09 12:24:29;;;;;;;;;;;18.00;43.00;;;;;;6153919;23;19909;-96
2023/04/09 12:26:56;;;;;;;;;;;18.10;43.70;;;;;;6180036;23;19912;-96
2023/04/09 12:29:24;;;;;;;;;;;18.40;44.50;;;;;;6156389;23;19889;-96
2023/04/09 12:31:53;;;;;;;;;;;18.80;43.50;;;;;;6156363;23;19911;-96
2023/04/09 12:34:21;;;;;;;;;;;19.20;42.80;;;;;;6133688;23;19972;-96
2023/04/09 12:36:49;;;;;;;;;;;19.80;42.50;;;;;;6158137;23;19932;-96
2023/04/09 12:39:20;;;;;;;;;;;20.30;39.70;;;;;;6180759;23;19912;-96
2023/04/09 12:41:48;;;;;;;;;;;20.50;38.20;;;;;;6156897;23;19923;-96
2023/04/09 12:44:17;;;;;;;;;;;20.50;38.30;;;;;;6182213;23;19928;-96
2023/04/09 12:54:48;;;;;;;;;;;22.60;34.80;;;;;;6137888;23;19931;-96
2023/04/09 12:57:16;;;;;;;;;;;22.60;33.80;;;;;;6154873;23;19893;-96
2023/04/09 12:59:44;;;;;;;;;;;22.00;33.70;;;;;;6158040;23;19928;-96
2023/04/09 13:02:18;;;;;;;;;;;21.90;34.80;;;;;;6181522;23;19924;-96
2023/04/09 13:04:47;;;;;;;;;;;21.60;35.60;;;;;;6157634;23;19973;-96
2023/04/09 13:07:16;;;;;;;;;;;21.20;35.70;;;;;;6158032;23;19904;-96
2023/04/09 13:09:55;;;;;;;;;;;21.20;38.40;;;;;;6157579;23;19909;-96
2023/04/09 13:12:29;;;;;;;;;;;21.00;37.60;;;;;;6182955;23;19929;-96
2023/04/09 13:14:57;;;;;;;;;;;20.80;37.20;;;;;;6157467;23;19915;-96
2023/04/09 13:17:24;;;;;;;;;;;20.30;37.70;;;;;;6155159;23;19915;-96
2023/04/09 13:19:50;;;;;;;;;;;19.60;38.40;;;;;;6179824;23;19952;-96
2023/04/09 13:22:17;;;;;;;;;;;19.00;39.90;;;;;;6154104;23;19928;-96
2023/04/09 13:24:44;;;;;;;;;;;18.60;39.20;;;;;;6179932;23;19917;-96
2023/04/09 13:27:10;;;;;;;;;;;18.30;41.20;;;;;;6153657;23;19904;-96
2023/04/09 13:29:37;;;;;;;;;;;17.80;41.30;;;;;;6154470;23;19920;-96
2023/04/09 13:32:06;;;;;;;;;;;17.50;42.20;;;;;;6152963;23;19897;-96
2023/04/09 13:34:33;;;;;;;;;;;17.30;43.80;;;;;;6180590;23;19969;-96
2023/04/09 13:36:59;;;;;;;;;;;17.30;43.60;;;;;;6154797;23;19912;-96
2023/04/09 13:39:25;;;;;;;;;;;17.30;45.80;;;;;;6154080;23;19911;-96
2023/04/09 13:41:55;;;;;;;;;;;17.20;46.20;;;;;;6153355;23;19905;-96
2023/04/09 13:44:21;;;;;;;;;;;17.20;44.30;;;;;;6153030;23;19928;-96
2023/04/09 13:46:47;;;;;;;;;;;17.20;45.50;;;;;;6153256;23;19908;-96
2023/04/09 13:49:16;;;;;;;;;;;17.10;48.10;;;;;;6152684;23;19916;-96
2023/04/09 13:51:43;;;;;;;;;;;16.80;47.90;;;;;;6179368;23;19928;-96
2023/04/09 13:54:10;;;;;;;;;;;16.70;49.60;;;;;;6151738;23;19908;-96
2023/04/09 13:56:36;;;;;;;;;;;16.50;50.20;;;;;;6151432;23;20023;-96
2023/04/09 13:59:02;;;;;;;;;;;16.40;50.40;;;;;;6152012;23;19905;-96
2023/04/09 14:01:29;;;;;;;;;;;16.30;50.90;;;;;;6177061;23;19948;-96
2023/04/09 14:03:55;;;;;;;;;;;16.20;51.40;;;;;;6151015;23;19905;-96
2023/04/09 14:06:20;;;;;;;;;;;16.10;52.30;;;;;;6151643;23;19928;-96
2023/04/09 14:08:46;;;;;;;;;;;16.00;52.90;;;;;;6151793;23;19904;-96
2023/04/09 14:11:14;;;;;;;;;;;16.10;52.30;;;;;;6151611;23;19905;-96
2023/04/09 14:13:40;;;;;;;;;;;16.10;51.20;;;;;;6151841;23;19973;-96
2023/04/09 14:16:07;;;;;;;;;;;16.00;52.20;;;;;;6178112;23;19905;-96
2023/04/09 14:18:33;;;;;;;;;;;16.00;51.60;;;;;;6178045;23;19920;-96
2023/04/09 14:20:59;;;;;;;;;;;16.00;51.90;;;;;;6177898;23;19905;-96
2023/04/09 14:23:25;;;;;;;;;;;16.10;52.20;;;;;;6152594;23;19905;-96
2023/04/09 14:25:52;;;;;;;;;;;16.10;51.00;;;;;;6178591;23;19909;-96